WetterOnline ( https://www.wetteronline.de )

Wetter aktuell Bad Alexandersbad

Aktuelles Wetter: Wunsiedel-Schönbrunn (622m)

6-stündlich | Neueste Meldungen
Ortszeit Temperatur Wetter
Do, 29.10. 7:00 7.7° C leichter Regen
Do, 29.10. 1:00 6.9° C leichter Regen
Mi, 28.10. 19:00 8.4° C bewölkt
Mi, 28.10. 13:00 6.0° C Sprühregen
Mi, 28.10. 7:00 3.9° C Sprühregen
Mi, 28.10. 1:00 4.7° C bewölkt
Di, 27.10. 19:00 5.1° C leicht bewölkt
Di, 27.10. 13:00 6.0° C bedeckt
Ortszeit Temperatur Wetter
Do, 29.10. 11:10 6.6° C Regen
Do, 29.10. 11:00 6.7° C Sprühregen
Do, 29.10. 10:50 6.7° C Sprühregen
Do, 29.10. 10:40 6.8° C leichter Regen
Do, 29.10. 10:30 6.6° C Sprühregen
Do, 29.10. 10:20 6.6° C Sprühregen
Do, 29.10. 10:00 6.7° C leichter Regen
Do, 29.10. 9:30 6.7° C leichter Regen
Do, 29.10. 9:00 6.8° C leichter Regen
Ortszeit Relative Feuchte Sichtweite
Do, 29.10. 7:00 90% 12 km
Do, 29.10. 1:00 95% 12 km
Mi, 28.10. 19:00 97% 13 km
Mi, 28.10. 13:00 97% 2.8 km
Mi, 28.10. 7:00 97% 1.3 km
Mi, 28.10. 1:00 95% 5.0 km
Di, 27.10. 19:00 90% 21 km
Di, 27.10. 13:00 89% 21 km
Ortszeit Relative Feuchte Sichtweite
Do, 29.10. 11:10 92% -
Do, 29.10. 11:00 92% 45 km
Do, 29.10. 10:50 92% -
Do, 29.10. 10:40 90% -
Do, 29.10. 10:30 92% 18 km
Do, 29.10. 10:20 92% -
Do, 29.10. 10:00 86% 30 km
Do, 29.10. 9:30 89% 10 km
Do, 29.10. 9:00 91% 13 km
Ortszeit Niederschlagsmenge Niederschlagsart
Do, 29.10. 7:00 4 l/m2 in 12 Std. Regen
Do, 29.10. 1:00 0.6 l/m2 in 6 Std. Regen
Mi, 28.10. 19:00 3 l/m2 in 12 Std. Regen
Mi, 28.10. 13:00 2 l/m2 in 6 Std. Regen
Mi, 28.10. 7:00 0.3 l/m2 in 12 Std. Regen
Mi, 28.10. 1:00 0.0 l/m2 in 6 Std. -
Di, 27.10. 19:00 0.1 l/m2 in 12 Std. Sprühregen
Di, 27.10. 13:00 0.0 l/m2 in 6 Std. -
Ortszeit Niederschlagsmenge Niederschlagsart
Do, 29.10. 11:10 keine Meldung -
Do, 29.10. 11:00 0.7 l/m2 in 1 Std. Regen
Do, 29.10. 10:50 keine Meldung -
Do, 29.10. 10:40 keine Meldung -
Do, 29.10. 10:30 0.3 l/m2 in 1 Std. -
Do, 29.10. 10:20 keine Meldung -
Do, 29.10. 10:00 1.0 l/m2 in 1 Std. Regen
Do, 29.10. 9:30 0.7 l/m2 in 1 Std. -
Do, 29.10. 9:00 0.5 l/m2 in 1 Std. Regen
Ortszeit Stärke Spitze Richtung
km/h Bft. km/h Grad Sektor
Do, 29.10. 7:00 13 3 44 250° W
Do, 29.10. 1:00 17 3 28 210° SW
Mi, 28.10. 19:00 13 3 26 230° SW
Mi, 28.10. 13:00 15 3 31 230° SW
Mi, 28.10. 7:00 18 3 40 230° SW
Mi, 28.10. 1:00 24 4 43 200° S
Di, 27.10. 19:00 18 3 36 200° S
Di, 27.10. 13:00 14 3 29 210° SW
Ortszeit Stärke Spitze Richtung
km/h Bft. km/h Grad Sektor
Do, 29.10. 11:10 14 3 - 260° W
Do, 29.10. 11:00 17 3 37 240° SW
Do, 29.10. 10:50 17 3 - 240° SW
Do, 29.10. 10:40 18 3 - 250° W
Do, 29.10. 10:30 18 3 36 240° SW
Do, 29.10. 10:20 18 3 - 240° SW
Do, 29.10. 10:00 15 3 41 250° W
Do, 29.10. 9:30 18 3 40 250° W
Do, 29.10. 9:00 17 3 30 230° SW
Ortszeit Untergrenze Bedeckung Gattung
total tief tief mittel hoch
Do, 29.10. 7:00 330 m 7/8 7/8 - - -
Do, 29.10. 1:00 1020 m 7/8 7/8 - - -
Mi, 28.10. 19:00 210 m 7/8 7/8 - - -
Mi, 28.10. 13:00 120 m 7/8 7/8 - - -
Mi, 28.10. 7:00 120 m 8/8 8/8 - - -
Mi, 28.10. 1:00 150 m 7/8 7/8 - - -
Di, 27.10. 19:00 330 m 3/8 3/8 - - -
Di, 27.10. 13:00 180 m 8/8 8/8 - - -
Ortszeit Bedeckungsgrad in Achtel und Wolkenuntergrenze
Do, 29.10. 11:10 2(330m) 7(510m) 7(630m)
Do, 29.10. 11:00 4(390m) 7(540m) 7(720m)
Do, 29.10. 10:50 4(390m) 7(540m) 7(720m)
Do, 29.10. 10:40 1(300m) 6(480m) 7(750m)
Do, 29.10. 10:30 2(270m) 7(480m) 8(630m)
Do, 29.10. 10:20 2(270m) 7(480m) 8(630m)
Do, 29.10. 10:00 3(540m) 6(690m) 7(1290m)
Do, 29.10. 9:30 4(360m) 7(540m) 8(900m)
Do, 29.10. 9:00 2(240m) 4(360m) 7(540m)
Ortszeit Luftdruck NN (hPa) Tendenz (hPa in 3 Std.)
Do, 29.10. 7:00 1014 + 0,7
Do, 29.10. 1:00 1015 - 0,8
Mi, 28.10. 19:00 1015 + 1,0
Mi, 28.10. 13:00 1015 + 0,5
Mi, 28.10. 7:00 1014 + 0,4
Mi, 28.10. 1:00 1013 - 0,4
Di, 27.10. 19:00 1014 + 0,7
Di, 27.10. 13:00 1013 + 0,5
Ortszeit Luftdruck NN (hPa) Tendenz (hPa in 3 Std.)
Do, 29.10. 11:10 1017 keine Meldung
Do, 29.10. 11:00 1017 + 1,8
Do, 29.10. 10:50 1017 keine Meldung
Do, 29.10. 10:40 1017 keine Meldung
Do, 29.10. 10:30 1016 + 1,7
Do, 29.10. 10:20 1016 keine Meldung
Do, 29.10. 10:00 1016 + 1,9
Do, 29.10. 9:30 1016 + 1,9
Do, 29.10. 9:00 1015 + 1,8
Ortszeit Schneehöhe (cm)
Do, 29.10. 7:00 0
Do, 29.10. 1:00 0
Mi, 28.10. 19:00 0
Mi, 28.10. 13:00 0
Mi, 28.10. 7:00 0
Mi, 28.10. 1:00 0
Di, 27.10. 19:00 0
Di, 27.10. 13:00 0
Ortszeit Schneehöhe (cm)
Do, 29.10. 11:10 0
Do, 29.10. 11:00 0
Do, 29.10. 10:50 0
Do, 29.10. 10:40 0
Do, 29.10. 10:30 0
Do, 29.10. 10:20 0
Do, 29.10. 10:00 0
Do, 29.10. 9:30 0
Do, 29.10. 9:00 0
Link zu dieser Seite / Seite empfehlen

Das Wetter in ...